Flight Track Log - Related Links

Times and Time Zones

All times are in EDT time to prevent confusion due to time zone crossing. See the EJM127 flight status page for this flight to view local times or setup timezone preferences in your user account.

Time Position Orientation Groundspeed Altitude Reporting Facility
EDT Latitude Longitude Course Direction KTS MPH feet Rate Location/Type
Sat 07:53:00 AM 55.6707 -20.0932 295° West  Level Estimated
Sat 07:54:00 AM 55.6506 -20.3173 261° West  Level Estimated
Sat 07:55:00 AM 55.6301 -20.5413 261° West  Level Estimated
Sat 07:56:00 AM 55.6091 -20.7649 261° West  Level Estimated
Sat 07:57:00 AM 55.5878 -20.9884 260° West  Level Estimated
Sat 07:58:00 AM 55.5661 -21.2116 260° West  Level Estimated
Sat 07:59:00 AM 55.5439 -21.4345 260° West  Level Estimated
Sat 08:00:00 AM 55.5213 -21.6572 260° West  Level Estimated
Sat 08:01:00 AM 55.4984 -21.8797 260° West  Level Estimated
Sat 08:02:00 AM 55.4750 -22.1019 260° West  Level Estimated
Sat 08:03:00 AM 55.4512 -22.3238 259° West  Level Estimated
Sat 08:04:00 AM 55.4271 -22.5454 259° West  Level Estimated
Sat 08:05:00 AM 55.4025 -22.7668 259° West  Level Estimated
Sat 08:06:00 AM 55.3775 -22.9879 259° West  Level Estimated
Sat 08:07:00 AM 55.3521 -23.2087 259° West  Level Estimated
Sat 08:08:00 AM 55.3264 -23.4292 258° West  Level Estimated
Sat 08:09:00 AM 55.3002 -23.6495 258° West  Level Estimated
Sat 08:10:00 AM 55.2737 -23.8694 258° West  Level Estimated
Sat 08:11:00 AM 55.2467 -24.0891 258° West  Level Estimated
Sat 08:12:00 AM 55.2193 -24.3084 258° West  Level Estimated
Sat 08:13:00 AM 55.1916 -24.5275 258° West  Level Estimated
Sat 08:14:00 AM 55.1635 -24.7462 257° West  Level Estimated
Sat 08:15:00 AM 55.1350 -24.9646 257° West  Level Estimated
Sat 08:16:00 AM 55.1060 -25.1827 257° West  Level Estimated
Sat 08:17:00 AM 55.0768 -25.4005 257° West  Level Estimated
Sat 08:18:00 AM 55.0471 -25.6180 257° West  Level Estimated
Sat 08:19:00 AM 55.0170 -25.8352 257° West  Level Estimated
Sat 08:20:00 AM 54.9865 -26.0520 256° West  Level Estimated
Sat 08:21:00 AM 54.9557 -26.2685 256° West  Level Estimated
Sat 08:22:00 AM 54.9244 -26.4846 256° West  Level Estimated
Sat 08:23:00 AM 54.8928 -26.7005 256° West  Level Estimated
Sat 08:23:00 AM 62.0000 -30.0000 263° West 461 531 40,000  Level ETMS Enhanced Traffic Management System
Sat 08:24:00 AM 54.8608 -26.9159 256° West  Level Estimated
Sat 08:25:00 AM 54.8284 -27.1311 255° West  Level Estimated
Sat 08:26:00 AM 54.7957 -27.3459 255° West  Level Estimated
Sat 08:27:00 AM 54.7625 -27.5603 255° West  Level Estimated
Sat 08:28:00 AM 54.7290 -27.7744 255° West  Level Estimated
Sat 08:29:00 AM 61.8509 -32.1555 261° West 461 531 40,000  Level FlightAware Transoceanic
Sat 08:30:00 AM 61.8299 -32.4234 260° West 461 531 40,000  Level FlightAware Transoceanic
Sat 08:31:00 AM 61.8084 -32.6909 260° West 461 531 40,000  Level FlightAware Transoceanic
Sat 08:32:00 AM 61.7863 -32.9580 260° West 461 531 40,000  Level FlightAware Transoceanic
Sat 08:33:00 AM 61.7638 -33.2248 260° West 461 531 40,000  Level FlightAware Transoceanic
Sat 08:34:00 AM 61.7407 -33.4911 260° West 461 531 40,000  Level FlightAware Transoceanic
Sat 08:35:00 AM 61.7171 -33.7571 259° West 461 531 40,000  Level FlightAware Transoceanic
Sat 08:36:00 AM 61.6930 -34.0227 259° West 461 531 40,000  Level FlightAware Transoceanic
Sat 08:37:00 AM 61.6684 -34.2878 259° West 461 531 40,000  Level FlightAware Transoceanic
Sat 08:38:00 AM 61.6433 -34.5525 259° West 461 531 40,000  Level FlightAware Transoceanic
Sat 08:39:00 AM 61.6176 -34.8167 258° West 461 531 40,000  Level FlightAware Transoceanic
Sat 08:40:00 AM 61.5915 -35.0806 258° West 461 531 40,000  Level FlightAware Transoceanic
Sat 08:41:00 AM 61.5648 -35.3439 258° West 461 531 40,000  Level FlightAware Transoceanic
Sat 08:42:00 AM 61.5377 -35.6069 258° West 461 531 40,000  Level FlightAware Transoceanic
Sat 08:43:00 AM 61.5100 -35.8693 257° West 461 531 40,000  Level FlightAware Transoceanic
Sat 08:44:00 AM 61.4818 -36.1313 257° West 461 531 40,000  Level FlightAware Transoceanic
Sat 08:45:00 AM 61.4532 -36.3928 257° West 461 531 40,000  Level FlightAware Transoceanic
Sat 08:46:00 AM 61.4240 -36.6538 257° West 461 531 40,000  Level FlightAware Transoceanic
Sat 08:47:00 AM 61.3943 -36.9144 257° West 461 531 40,000  Level FlightAware Transoceanic
Sat 08:48:00 AM 61.3642 -37.1744 256° West 461 531 40,000  Level FlightAware Transoceanic
Sat 08:49:00 AM 61.3335 -37.4339 256° West 461 531 40,000  Level FlightAware Transoceanic
Sat 08:50:00 AM 61.3023 -37.6929 256° West 461 531 40,000  Level FlightAware Transoceanic
Sat 08:51:00 AM 61.2707 -37.9514 256° West 461 531 40,000  Level FlightAware Transoceanic
Sat 08:52:00 AM 61.2386 -38.2094 255° West 461 531 40,000  Level FlightAware Transoceanic
Sat 08:53:00 AM 61.2059 -38.4668 255° West 461 531 40,000  Level FlightAware Transoceanic
Sat 08:54:00 AM 61.1728 -38.7237 255° West 461 531 40,000  Level FlightAware Transoceanic
Sat 08:55:00 AM 61.1392 -38.9801 255° West 461 531 40,000  Level FlightAware Transoceanic
Sat 08:56:00 AM 61.1051 -39.2359 254° West 461 531 40,000  Level FlightAware Transoceanic
Sat 08:57:00 AM 61.0706 -39.4912 254° West 461 531 40,000  Level FlightAware Transoceanic
Sat 08:58:00 AM 61.0355 -39.7459 254° West 461 531 40,000  Level FlightAware Transoceanic
Sat 08:59:00 AM 61.0000 -39.9998 254° West  Level FlightAware Approximate
Sat 09:00:00 AM 60.9678 -40.2552 256° West  Level FlightAware Approximate
Sat 09:01:00 AM 60.9428 -40.2355 244° Southwest  Level FlightAware Approximate
Sat 09:02:00 AM 60.8852 -40.4707 243° Southwest  Level FlightAware Approximate
Sat 09:03:00 AM 60.8271 -40.7050 243° Southwest  Level FlightAware Approximate
Sat 09:03:00 AM 61.0000 -40.0000 244° Southwest 460 529 40,000  Level ETMS Enhanced Traffic Management System
Sat 09:04:00 AM 60.7686 -40.9384 243° Southwest  Level FlightAware Approximate
Sat 09:05:00 AM 60.7097 -41.1710 243° Southwest  Level FlightAware Approximate
Sat 09:06:00 AM 60.6504 -41.4027 243° Southwest  Level FlightAware Approximate
Sat 09:07:00 AM 60.5907 -41.6337 242° Southwest  Level FlightAware Approximate
Sat 09:08:00 AM 60.5308 -41.8639 242° Southwest  Level FlightAware Approximate
Sat 09:09:00 AM 60.4145 -42.3260 242° Southwest 460 529 40,000  Level FlightAware Transoceanic
Sat 09:10:00 AM 60.3537 -42.5539 242° Southwest 460 529 40,000  Level FlightAware Transoceanic
Sat 09:11:00 AM 60.2926 -42.7810 241° Southwest 460 529 40,000  Level FlightAware Transoceanic
Sat 09:12:00 AM 60.2311 -43.0073 241° Southwest 460 529 40,000  Level FlightAware Transoceanic
Sat 09:13:00 AM 60.1692 -43.2326 241° Southwest 460 529 40,000  Level FlightAware Transoceanic
Sat 09:14:00 AM 60.1069 -43.4572 241° Southwest 460 529 40,000  Level FlightAware Transoceanic
Sat 09:15:00 AM 60.0443 -43.6808 241° Southwest 460 529 40,000  Level FlightAware Transoceanic
Sat 09:16:00 AM 59.9812 -43.9037 240° Southwest 460 529 40,000  Level FlightAware Transoceanic
Sat 09:17:00 AM 59.9178 -44.1256 240° Southwest 460 529 40,000  Level FlightAware Transoceanic
Sat 09:18:00 AM 59.8540 -44.3468 240° Southwest 460 529 40,000  Level FlightAware Transoceanic
Sat 09:19:00 AM 59.7899 -44.5671 240° Southwest 460 529 40,000  Level FlightAware Transoceanic
Sat 09:20:00 AM 59.7254 -44.7865 240° Southwest 460 529 40,000  Level FlightAware Transoceanic
Sat 09:21:00 AM 59.6605 -45.0051 239° Southwest 460 529 40,000  Level FlightAware Transoceanic
Sat 09:22:00 AM 59.5952 -45.2228 239° Southwest 460 529 40,000  Level FlightAware Transoceanic
Sat 09:23:00 AM 59.5297 -45.4397 239° Southwest 460 529 40,000  Level FlightAware Transoceanic
Sat 09:24:00 AM 59.4637 -45.6558 239° Southwest 460 529 40,000  Level FlightAware Transoceanic
Sat 09:25:00 AM 59.3974 -45.8710 239° Southwest 460 529 40,000  Level FlightAware Transoceanic
Sat 09:26:00 AM 59.3307 -46.0854 239° Southwest 460 529 40,000  Level FlightAware Transoceanic
Sat 09:27:00 AM 59.2637 -46.2989 238° Southwest 460 529 40,000  Level FlightAware Transoceanic
Sat 09:28:00 AM 59.1963 -46.5116 238° Southwest 460 529 40,000  Level FlightAware Transoceanic
Sat 09:29:00 AM 59.1286 -46.7234 238° Southwest 460 529 40,000  Level FlightAware Transoceanic
Sat 09:30:00 AM 59.0606 -46.9344 238° Southwest 460 529 40,000  Level FlightAware Transoceanic
Sat 09:31:00 AM 58.9921 -47.1446 238° Southwest 460 529 40,000  Level FlightAware Transoceanic
Sat 09:32:00 AM 58.9234 -47.3539 237° Southwest 460 529 40,000  Level FlightAware Transoceanic
Sat 09:33:00 AM 58.8543 -47.5624 237° Southwest 460 529 40,000  Level FlightAware Transoceanic
Sat 09:34:00 AM 58.7849 -47.7701 237° Southwest 460 529 40,000  Level FlightAware Transoceanic
Sat 09:35:00 AM 58.7152 -47.9769 237° Southwest 460 529 40,000  Level FlightAware Transoceanic
Sat 09:36:00 AM 58.6451 -48.1829 237° Southwest 460 529 40,000  Level FlightAware Transoceanic
Sat 09:37:00 AM 58.5747 -48.3881 237° Southwest 460 529 40,000  Level FlightAware Transoceanic
Sat 09:38:00 AM 58.5040 -48.5925 236° Southwest 460 529 40,000  Level FlightAware Transoceanic
Sat 09:39:00 AM 58.4329 -48.7960 236° Southwest 460 529 40,000  Level FlightAware Transoceanic
Sat 09:40:00 AM 58.3616 -48.9987 236° Southwest 460 529 40,000  Level FlightAware Transoceanic
Sat 09:41:00 AM 58.2899 -49.2006 236° Southwest 460 529 40,000  Level FlightAware Transoceanic
Sat 09:42:00 AM 58.2179 -49.4017 236° Southwest 460 529 40,000  Level FlightAware Transoceanic
Sat 09:43:00 AM 58.1456 -49.6019 236° Southwest 460 529 40,000  Level FlightAware Transoceanic
Sat 09:44:00 AM 58.0729 -49.8014 235° Southwest 460 529 40,000  Level FlightAware Transoceanic
Sat 09:45:00 AM 58.0000 -50.0001 235° Southwest  Level FlightAware Approximate
Sat 09:46:00 AM 57.9120 -50.1755 240° Southwest  Level Estimated
Sat 09:47:00 AM 57.8496 -50.3858 241° Southwest  Level FlightAware Approximate
Sat 09:47:20 AM 58.0000 -50.0000 240° Southwest 470 541 40,000  Level ETMS Enhanced Traffic Management System
Sat 09:48:00 AM 57.7868 -50.5953 241° Southwest  Level FlightAware Approximate
Sat 09:49:00 AM 57.7237 -50.8040 241° Southwest  Level FlightAware Approximate
Sat 09:50:00 AM 57.6602 -51.0121 240° Southwest  Level FlightAware Approximate
Sat 09:51:00 AM 57.5964 -51.2194 240° Southwest  Level FlightAware Approximate
Sat 09:52:00 AM 57.5322 -51.4260 240° Southwest  Level FlightAware Approximate
Sat 09:53:00 AM 57.3997 -51.8935 239° Southwest 470 541 40,000  Level FlightAware Transoceanic
Sat 09:54:00 AM 57.3313 -52.1000 238° Southwest 470 541 40,000  Level FlightAware Transoceanic
Sat 09:55:00 AM 57.2625 -52.3058 238° Southwest 470 541 40,000  Level FlightAware Transoceanic
Sat 09:56:00 AM 57.1935 -52.5108 238° Southwest 470 541 40,000  Level FlightAware Transoceanic
Sat 09:57:00 AM 57.1240 -52.7150 238° Southwest 470 541 40,000  Level FlightAware Transoceanic
Sat 09:58:00 AM 57.0543 -52.9184 238° Southwest 470 541 40,000  Level FlightAware Transoceanic
Sat 09:59:00 AM 56.9842 -53.1211 237° Southwest 470 541 40,000  Level FlightAware Transoceanic
Sat 10:00:00 AM 56.9138 -53.3230 237° Southwest 470 541 40,000  Level FlightAware Transoceanic
Sat 10:01:00 AM 56.8430 -53.5242 237° Southwest 470 541 40,000  Level FlightAware Transoceanic
Sat 10:02:00 AM 56.7720 -53.7246 237° Southwest 470 541 40,000  Level FlightAware Transoceanic
Sat 10:03:00 AM 56.7006 -53.9242 237° Southwest 470 541 40,000  Level FlightAware Transoceanic
Sat 10:04:00 AM 56.6289 -54.1231 237° Southwest 470 541 40,000  Level FlightAware Transoceanic
Sat 10:05:00 AM 56.5569 -54.3213 236° Southwest 470 541 40,000  Level FlightAware Transoceanic
Sat 10:06:00 AM 56.4846 -54.5186 236° Southwest 470 541 40,000  Level FlightAware Transoceanic
Sat 10:07:00 AM 56.4119 -54.7152 236° Southwest 470 541 40,000  Level FlightAware Transoceanic
Sat 10:08:00 AM 56.3390 -54.9111 236° Southwest 470 541 40,000  Level FlightAware Transoceanic
Sat 10:09:00 AM 56.2657 -55.1062 236° Southwest 470 541 40,000  Level FlightAware Transoceanic
Sat 10:10:00 AM 56.1922 -55.3006 236° Southwest 470 541 40,000  Level FlightAware Transoceanic
Sat 10:11:00 AM 56.1183 -55.4942 236° Southwest 470 541 40,000  Level FlightAware Transoceanic
Sat 10:12:00 AM 56.0441 -55.6871 235° Southwest 470 541 40,000  Level FlightAware Transoceanic
Sat 10:13:00 AM 55.9697 -55.8793 235° Southwest 470 541 40,000  Level FlightAware Transoceanic
Sat 10:14:00 AM 55.8949 -56.0707 235° Southwest 470 541 40,000  Level FlightAware Transoceanic
Sat 10:15:00 AM 55.8198 -56.2613 235° Southwest 470 541 40,000  Level FlightAware Transoceanic
Sat 10:16:00 AM 55.7445 -56.4513 235° Southwest 470 541 40,000  Level FlightAware Transoceanic
Sat 10:17:00 AM 55.6688 -56.6405 235° Southwest 470 541 40,000  Level FlightAware Transoceanic
Sat 10:18:00 AM 55.5929 -56.8289 234° Southwest 470 541 40,000 72 Level FlightAware Transoceanic
Sat 10:18:23 AM 55.6667 -56.6000 219° Southwest 470 541 40,100 72 Climbing Gander Center
Sat 10:19:00 AM 55.4930 -56.9742 220° Southwest  Level Estimated
Sat 10:19:23 AM 55.5833 -56.7833 231° Southwest 470 541 40,100  Level Gander Center
Sat 10:20:00 AM 55.3930 -57.1188 219° Southwest  Level Estimated
Sat 10:20:23 AM 55.5000 -57.0000 236° Southwest 480 552 40,100  Level Gander Center
Sat 10:21:00 AM 55.2927 -57.2626 219° Southwest  Level Estimated
Sat 10:21:23 AM 55.4167 -57.1667 229° Southwest 490 564 40,100  Level Gander Center
Sat 10:22:00 AM 55.1923 -57.4058 219° Southwest  Level Estimated
Sat 10:22:23 AM 55.3000 -57.3167 216° Southwest 490 564 40,600  Level Gander Center
Sat 10:23:00 AM 55.0918 -57.5481 219° Southwest  Level Estimated
Sat 10:23:23 AM 55.2167 -57.4667 226° Southwest 480 552 41,700  Level Gander Center
Sat 10:24:23 AM 55.1167 -57.6333 224° Southwest 480 552 42,400 600 Climbing Gander Center
Sat 10:25:23 AM 55.0167 -57.7833 221° Southwest 480 552 42,900 300 Climbing Gander Center
Sat 10:26:23 AM 54.9167 -57.9333 221° Southwest 480 552 43,000 100 Climbing Gander Center
Sat 10:27:23 AM 54.8167 -58.1000 224° Southwest 480 552 43,100 50 Climbing Gander Center
Sat 10:28:23 AM 54.7167 -58.2500 221° Southwest 480 552 43,100  Level Gander Center
Sat 10:29:23 AM 54.6167 -58.4000 221° Southwest 480 552 43,100 -50 Level Gander Center
Sat 10:30:23 AM 54.5167 -58.5500 221° Southwest 470 541 43,000  Descending Gander Center
Sat 10:31:23 AM 54.4167 -58.6667 214° Southwest 470 541 43,100  Climbing Gander Center
Sat 10:31:41 AM 54.3833 -58.7333 229° Southwest 470 541 43,000  Descending Gander Center
Sat 10:32:41 AM 54.2833 -58.8833 221° Southwest 470 541 43,100  Climbing Gander Center
Sat 10:33:41 AM 54.2000 -59.0333 227° Southwest 460 529 43,000 -50 Descending Gander Center
Sat 10:34:41 AM 54.1000 -59.1500 214° Southwest 460 529 43,000  Level Gander Center
Sat 10:35:23 AM 54.0333 -59.2667 226° Southwest 460 529 43,000  Level Gander Center
Sat 10:36:23 AM 53.9333 -59.4000 218° Southwest 460 529 43,000  Level Gander Center
Sat 10:36:41 AM 53.9000 -59.4333 211° Southwest 460 529 43,000  Level Gander Center
Sat 10:37:41 AM 53.8000 -59.5833 222° Southwest 460 529 43,000 50 Level Gander Center
Sat 10:38:41 AM 53.7000 -59.7333 222° Southwest 460 529 43,100  Climbing Gander Center
Sat 10:39:41 AM 53.6167 -59.8500 220° Southwest 450 518 43,000  Descending Gander Center
Sat 10:40:41 AM 53.5167 -59.9833 218° Southwest 450 518 43,100 50 Climbing Gander Center
Sat 10:41:41 AM 53.4167 -60.1333 222° Southwest 460 529 43,100 -59 Level Gander Center
Sat 10:42:23 AM 53.3333 -60.2500 220° Southwest 460 529 43,000 -59 Descending Gander Center
Sat 10:43:23 AM 53.2500 -60.3667 220° Southwest 460 529 43,000 50 Level Gander Center
Sat 10:44:23 AM 53.1500 -60.5000 219° Southwest 460 529 43,100 68 Climbing Gander Center
Sat 10:44:51 AM 53.1000 -60.5500 211° Southwest 460 529 43,100  Level Moncton Center
Sat 10:45:23 AM 53.0500 -60.6500 230° Southwest 460 529 43,100 -65 Level Gander Center
Sat 10:46:23 AM 52.9500 -60.7833 219° Southwest 460 529 43,000 -50 Descending Gander Center
Sat 10:47:23 AM 52.8500 -60.9167 219° Southwest 460 529 43,000 50 Level Gander Center
Sat 10:48:23 AM 52.7500 -61.0667 222° Southwest 460 529 43,100 50 Climbing Gander Center
Sat 10:49:23 AM 52.6500 -61.2000 219° Southwest 460 529 43,100  Level Gander Center
Sat 10:50:23 AM 52.5500 -61.3167 215° Southwest 470 541 43,100 -50 Level Gander Center
Sat 10:51:23 AM 52.4500 -61.4500 219° Southwest 460 529 43,000  Descending Gander Center
Sat 10:52:23 AM 52.3500 -61.5833 219° Southwest 460 529 43,100  Climbing Gander Center
Sat 10:52:51 AM 52.3000 -61.6333 211° Southwest 460 529 43,000 -100 Descending Moncton Center
Sat 10:53:23 AM 52.2667 -61.7167 237° Southwest 460 529 43,000  Level Gander Center
Sat 10:54:23 AM 52.1333 -61.8500 212° Southwest 470 541 43,000  Level Gander Center
Sat 10:54:51 AM 52.1000 -61.9167 231° Southwest 460 529 43,000  Level Moncton Center
Sat 10:55:23 AM 52.0333 -61.9667 205° Southwest 460 529 43,000 65 Level Gander Center
Sat 10:56:23 AM 51.9333 -62.1167 223° Southwest 460 529 43,100 50 Climbing Gander Center
Sat 10:57:23 AM 51.8333 -62.2333 216° Southwest 460 529 43,100 -68 Level Gander Center
Sat 10:57:51 AM 51.8000 -62.2833 223° Southwest 460 529 43,000  Descending Moncton Center
Sat 10:58:51 AM 51.7000 -62.4333 223° Southwest 460 529 43,100 65 Climbing Moncton Center
Sat 10:59:23 AM 51.6500 -62.5000 220° Southwest 450 518 43,100  Level Gander Center
Sat 10:59:51 AM 51.6000 -62.5333 202° Southwest 450 518 43,100 -68 Level Moncton Center
Sat 11:00:51 AM 51.5000 -62.6833 223° Southwest 450 518 43,000 -65 Descending Moncton Center
Sat 11:01:23 AM 51.4500 -62.7333 212° Southwest 450 518 43,000  Level Gander Center
Sat 11:02:23 AM 51.3500 -62.8667 220° Southwest 450 518 43,000  Level Gander Center
Sat 11:02:51 AM 51.3000 -62.9167 212° Southwest 450 518 43,000 100 Level Moncton Center
Sat 11:03:23 AM 51.2500 -63.0000 226° Southwest 450 518 43,100 65 Climbing Gander Center
Sat 11:04:23 AM 51.1667 -63.1000 217° Southwest 450 518 43,100  Level Gander Center
Sat 11:05:23 AM 51.0500 -63.2167 212° Southwest 450 518 43,100  Level Gander Center
Sat 11:06:23 AM 50.9500 -63.3500 220° Southwest 450 518 43,100  Level Gander Center
Sat 11:07:23 AM 50.8500 -63.4833 220° Southwest 440 506 43,100 -50 Level Gander Center
Sat 11:08:23 AM 50.7500 -63.5833 212° Southwest 440 506 43,000 -68 Descending Gander Center
Sat 11:08:51 AM 50.7167 -63.6333 224° Southwest 440 506 43,000  Level Moncton Center
Sat 11:09:23 AM 50.6667 -63.7167 227° Southwest 440 506 43,000  Level Gander Center
Sat 11:10:23 AM 50.5667 -63.8167 212° Southwest 440 506 43,000 50 Level Gander Center
Sat 11:11:23 AM 50.4500 -63.9333 213° Southwest 450 518 43,100  Climbing Gander Center
Sat 11:12:23 AM 50.3667 -64.0333 217° Southwest 440 506 43,000 -50 Descending Gander Center
Sat 11:13:23 AM 50.2667 -64.1667 220° Southwest 440 506 43,000  Level Gander Center
Sat 11:14:23 AM 50.1667 -64.2833 217° Southwest 440 506 43,000  Level Gander Center
Sat 11:14:51 AM 50.1167 -64.3167 203° Southwest 440 506 43,000  Level Moncton Center
Sat 11:15:23 AM 50.0833 -64.3833 232° Southwest 440 506 43,000  Level Gander Center
Sat 11:16:23 AM 49.9667 -64.5000 213° Southwest 440 506 43,000  Level Gander Center
Sat 11:17:23 AM 49.8667 -64.6000 213° Southwest 450 518 43,000  Level Gander Center
Sat 11:17:51 AM 49.8333 -64.6500 224° Southwest 440 506 43,000  Level Moncton Center
Sat 11:18:23 AM 49.7667 -64.7333 219° Southwest 450 518 43,000  Level Gander Center
Sat 11:19:23 AM 49.6667 -64.8500 217° Southwest 450 518 43,000  Level Gander Center
Sat 11:19:51 AM 49.6167 -64.8833 203° Southwest 450 518 43,000 68 Level Moncton Center
Sat 11:20:51 AM 49.5167 -65.0167 221° Southwest 440 506 43,100  Climbing Moncton Center
Sat 11:21:51 AM 49.4167 -65.1167 213° Southwest 440 506 43,000 -50 Descending Moncton Center
Sat 11:22:51 AM 49.3167 -65.2167 213° Southwest 440 506 43,000  Level Moncton Center
Sat 11:23:51 AM 49.2167 -65.3500 221° Southwest 450 518 43,000  Level Moncton Center
Sat 11:24:23 AM 49.1667 -65.4000 213° Southwest 450 518 43,000  Level Gander Center
Sat 11:24:51 AM 49.1167 -65.4500 213° Southwest 450 518 43,000  Level Moncton Center
Sat 11:25:51 AM 49.0167 -65.5667 217° Southwest 450 518 43,000  Level Moncton Center
Sat 11:26:51 AM 48.9167 -65.6667 213° Southwest 450 518 43,000  Level Moncton Center
Sat 11:27:23 AM 48.8667 -65.7333 221° Southwest 450 518 43,000  Level Gander Center
Sat 11:27:51 AM 48.8167 -65.8000 221° Southwest 440 506 43,000  Level Moncton Center
Sat 11:28:51 AM 48.7167 -65.9000 213° Southwest 440 506 43,000  Level Moncton Center
Sat 11:29:51 AM 48.6167 -66.0000 213° Southwest 440 506 43,000  Level Moncton Center
Sat 11:30:51 AM 48.5000 -66.1167 214° Southwest 440 506 43,000  Level Moncton Center
Sat 11:31:51 AM 48.4000 -66.2167 214° Southwest 430 495 43,000 50 Level Moncton Center
Sat 11:32:51 AM 48.3167 -66.3167 219° Southwest 430 495 43,100  Climbing Moncton Center
Sat 11:33:51 AM 48.2167 -66.4000 209° Southwest 430 495 43,000 -50 Descending Moncton Center
Sat 11:34:51 AM 48.1167 -66.5333 222° Southwest 430 495 43,000  Level Moncton Center
Sat 11:35:51 AM 48.0167 -66.6167 209° Southwest 430 495 43,000  Level Moncton Center
Sat 11:36:51 AM 47.9167 -66.7500 222° Southwest 430 495 43,000 65 Level Moncton Center
Sat 11:37:23 AM 47.8667 -66.7833 204° Southwest 440 506 43,100 500 Climbing Gander Center
Sat 11:37:51 AM 47.8167 -66.8333 214° Southwest 440 506 43,500 955 Climbing Moncton Center
Sat 11:38:51 AM 47.7167 -66.9333 214° Southwest 430 495 44,500 1,000 Climbing Moncton Center
Sat 11:39:51 AM 47.6167 -67.0500 218° Southwest 430 495 45,500 650 Climbing Moncton Center
Sat 11:40:51 AM 47.5167 -67.1500 214° Southwest 430 495 45,800 300 Climbing Moncton Center
Sat 11:41:51 AM 47.4167 -67.2500 214° Southwest 430 495 46,100 326 Climbing Moncton Center
Sat 11:42:23 AM 47.3667 -67.3000 214° Southwest 430 495 46,300 326 Climbing Gander Center
Sat 11:43:23 AM 47.2667 -67.3833 209° Southwest 440 506 46,600 273 Climbing Gander Center
Sat 11:43:51 AM 47.2000 -67.4333 207° Southwest 440 506 46,700 267 Climbing Moncton Center
Sat 11:44:08 AM 47.2003 -67.4581 271° West 445 512 46,800 300 Climbing Boston Center
Sat 11:44:51 AM 47.1000 -67.5167 202° Southwest 440 506 47,000 117 Climbing Moncton Center
Sat 11:45:51 AM 47.0000 -67.6333 219° Southwest 450 518 47,000  Level Moncton Center
Sat 11:46:51 AM 46.9000 -67.7333 214° Southwest 450 518 47,000  Level Moncton Center
Sat 11:47:51 AM 46.8000 -67.8500 219° Southwest 450 518 47,000  Level Moncton Center
Sat 11:48:51 AM 46.6833 -67.9333 206° Southwest 450 518 47,000  Level Moncton Center
Sat 11:49:08 AM 46.6744 -67.9531 237° Southwest 450 518 47,000  Level Boston Center
Sat 11:50:08 AM 46.5781 -68.0483 214° Southwest 464 534 47,000  Level Boston Center
Sat 11:51:08 AM 46.4692 -68.1444 211° Southwest 464 534 47,000  Level Boston Center
Sat 11:52:08 AM 46.3603 -68.2400 211° Southwest 464 534 47,000  Level Boston Center
Sat 11:53:08 AM 46.2556 -68.3378 213° Southwest 458 527 47,000  Level Boston Center
Sat 11:54:08 AM 46.1300 -68.4428 210° Southwest 466 536 47,000  Level Boston Center
Sat 11:55:08 AM 46.0228 -68.5400 212° Southwest 471 542 47,000  Level Boston Center
Sat 11:56:08 AM 45.9156 -68.6339 211° Southwest 471 542 47,000  Level Boston Center
Sat 11:57:08 AM 45.8083 -68.7333 213° Southwest 466 536 47,000  Level Boston Center
Sat 11:58:08 AM 45.7394 -68.7975 213° Southwest 451 519 47,000  Level Boston Center
Sat 11:59:08 AM 45.6097 -68.9125 212° Southwest 451 519 47,000  Level Boston Center
Sat 12:00:08 PM 45.5225 -68.9889 212° Southwest 451 519 47,000  Level Boston Center
Sat 12:01:08 PM 45.3842 -69.1094 211° Southwest 456 525 47,000  Level Boston Center
Sat 12:02:08 PM 45.2989 -69.1825 211° Southwest 456 525 47,000  Level Boston Center
Sat 12:03:08 PM 45.1686 -69.2928 211° Southwest 461 531 47,000  Level Boston Center
Sat 12:04:08 PM 45.0628 -69.3867 212° Southwest 461 531 47,000  Level Boston Center
Sat 12:05:08 PM 44.9483 -69.4806 210° Southwest 466 536 47,000  Level Boston Center
Sat 12:06:08 PM 44.8486 -69.5678 212° Southwest 474 545 47,000  Level Boston Center
Sat 12:07:08 PM 44.7425 -69.6606 212° Southwest 469 540 47,000  Level Boston Center
Sat 12:08:08 PM 44.6300 -69.7533 210° Southwest 468 539 47,000  Level Boston Center
Sat 12:09:08 PM 44.5197 -69.8458 211° Southwest 462 532 47,000  Level Boston Center
Sat 12:10:08 PM 44.4092 -69.9378 211° Southwest 462 532 47,000  Level Boston Center
Sat 12:11:08 PM 44.2986 -70.0297 211° Southwest 467 537 47,000  Level Boston Center
Sat 12:12:08 PM 44.1881 -70.1208 211° Southwest 467 537 47,000  Level Boston Center
Sat 12:13:08 PM 44.0772 -70.2147 211° Southwest 467 537 47,000  Level Boston Center
Sat 12:14:20 PM 43.9644 -70.3056 210° Southwest 467 537 47,000  Level Boston Center
Sat 12:15:20 PM 43.8308 -70.4139 210° Southwest 467 537 47,000  Level Boston Center
Sat 12:16:20 PM 43.7219 -70.5039 211° Southwest 467 537 47,000  Level Boston Center
Sat 12:17:20 PM 43.6028 -70.6022 211° Southwest 460 529 47,000  Level Boston Center
Sat 12:18:20 PM 43.4936 -70.6914 211° Southwest 460 529 47,000  Level Boston Center
Sat 12:19:20 PM 43.3803 -70.7803 210° Southwest 466 536 47,000  Level Boston Center
Sat 12:20:20 PM 43.2711 -70.8717 211° Southwest 466 536 47,000  Level Boston Center
Sat 12:21:20 PM 43.1556 -70.9631 210° Southwest 466 536 47,000  Level Boston Center
Sat 12:22:51 PM 42.9667 -71.1167 211° Southwest 470 541 47,000  Level Moncton Center
Sat 12:23:20 PM 42.9328 -71.1414 208° Southwest 466 536 47,000  Level Boston Center
Sat 12:24:20 PM 42.8192 -71.2314 210° Southwest 466 536 47,000  Level Boston Center
Sat 12:25:20 PM 42.7056 -71.3214 210° Southwest 466 536 47,000  Level Boston Center
Sat 12:26:20 PM 42.5958 -71.4078 210° Southwest 471 542 47,000  Level Boston Center
Sat 12:27:20 PM 42.4819 -71.5056 212° Southwest 471 542 47,000  Level Boston Center
Sat 12:28:20 PM 42.3703 -71.5942 210° Southwest 476 548 47,000  Level Boston Center
Sat 12:29:20 PM 42.2603 -71.6883 212° Southwest 471 542 47,000  Level Boston Center
Sat 12:30:20 PM 42.1506 -71.7819 212° Southwest 471 542 47,000  Level Boston Center
Sat 12:31:20 PM 42.0406 -71.8783 213° Southwest 476 548 47,000  Level Boston Center
Sat 12:32:20 PM 41.9306 -71.9686 211° Southwest 476 548 47,000  Level Boston Center
Sat 12:33:20 PM 41.8203 -72.0611 212° Southwest 476 548 47,000  Level Boston Center
Sat 12:34:20 PM 41.7103 -72.1564 213° Southwest 476 548 47,000  Level Boston Center
Sat 12:35:20 PM 41.5978 -72.2486 212° Southwest 476 548 47,000  Level Boston Center
Sat 12:36:20 PM 41.5000 -72.3292 212° Southwest 476 548 47,000  Level Boston Center
Sat 12:37:20 PM 41.3897 -72.4236 213° Southwest 471 542 47,000  Level Boston Center
Sat 12:38:20 PM 41.2667 -72.5339 214° Southwest 488 562 47,000  Level Boston Center
Sat 12:39:20 PM 41.1539 -72.6303 213° Southwest 494 568 47,000  Level Boston Center
Sat 12:40:20 PM 41.0433 -72.7264 213° Southwest 489 563 47,000  Level Boston Center
Sat 12:41:20 PM 40.9325 -72.8192 212° Southwest 484 557 47,000  Level Boston Center
Sat 12:42:52 PM 40.7739 -72.9625 214° Southwest 489 563 47,000  Level Washington Center
Sat 12:43:51 PM 40.6656 -73.0514 212° Southwest 484 557 47,000  Level Washington Center
Sat 12:44:51 PM 40.5531 -73.1483 213° Southwest 484 557 47,000  Level Washington Center
Sat 12:45:53 PM 40.4358 -73.2289 208° Southwest 484 557 47,000  Level Washington Center
Sat 12:46:53 PM 40.3147 -73.3089 207° Southwest 484 557 47,000  Level Washington Center
Sat 12:47:53 PM 40.1953 -73.3861 206° Southwest 484 557 47,000  Level Washington Center
Sat 12:48:52 PM 40.0633 -73.4689 206° Southwest 484 557 47,000  Level Washington Center
Sat 12:49:53 PM 39.9439 -73.5483 207° Southwest 484 557 47,000  Level Washington Center
Sat 12:50:51 PM 39.8222 -73.6275 207° Southwest 484 557 47,000  Level Washington Center
Sat 12:51:51 PM 39.7008 -73.7064 207° Southwest 484 557 47,000  Level Washington Center
Sat 12:52:51 PM 39.5769 -73.7850 206° Southwest 484 557 47,000  Level Washington Center
Sat 12:53:52 PM 39.4572 -73.8606 206° Southwest 484 557 47,000  Level Washington Center
Sat 12:54:52 PM 39.3375 -73.9414 208° Southwest 484 557 47,000  Level Washington Center
Sat 12:55:53 PM 39.2133 -74.0192 206° Southwest 484 557 47,000  Level Washington Center
Sat 12:56:53 PM 39.0914 -74.0992 207° Southwest 489 563 47,000  Level Washington Center
Sat 12:57:51 PM 38.9672 -74.1767 206° Southwest 489 563 47,000  Level Washington Center
Sat 12:58:51 PM 38.8597 -74.2453 206° Southwest 489 563 47,000  Level Washington Center
Sat 12:59:52 PM 38.7356 -74.3250 207° Southwest 489 563 47,000  Level Washington Center
Sat 01:00:53 PM 38.6114 -74.4042 206° Southwest 489 563 47,000  Level Washington Center
Sat 01:01:51 PM 38.4889 -74.4831 207° Southwest 489 563 47,000  Level Washington Center
Sat 01:02:52 PM 38.3644 -74.5564 205° Southwest 489 563 47,000  Level Washington Center
Sat 01:03:52 PM 38.2422 -74.6347 207° Southwest 494 568 47,000  Level Washington Center
Sat 01:04:53 PM 38.1219 -74.7075 205° Southwest 489 563 47,000  Level Washington Center
Sat 01:05:53 PM 38.0036 -74.7881 208° Southwest 484 557 47,000  Level Washington Center
Sat 01:06:51 PM 37.8789 -74.8603 205° Southwest 484 557 47,000  Level Washington Center
Sat 01:07:52 PM 37.7564 -74.9378 207° Southwest 489 563 47,000  Level Washington Center
Sat 01:08:52 PM 37.6314 -75.0097 205° Southwest 489 563 47,000  Level Washington Center
Sat 01:09:53 PM 37.5067 -75.0892 207° Southwest 489 563 47,000  Level Washington Center
Sat 01:10:51 PM 37.3819 -75.1633 205° Southwest 489 563 47,000  Level Washington Center
Sat 01:11:51 PM 37.2592 -75.2369 206° Southwest 489 563 47,000  Level Washington Center
Sat 01:12:51 PM 37.1319 -75.3131 206° Southwest 494 568 47,000  Level Washington Center
Sat 01:13:52 PM 37.0111 -75.3839 205° Southwest 494 568 47,000  Level Washington Center
Sat 01:14:52 PM 36.8881 -75.4569 205° Southwest 494 568 47,000  Level Washington Center
Sat 01:15:53 PM 36.7506 -75.5375 205° Southwest 488 562 47,000  Level Washington Center
Sat 01:16:51 PM 36.6253 -75.6128 206° Southwest 488 562 47,000  Level Washington Center
Sat 01:17:51 PM 36.5044 -75.6825 205° Southwest 488 562 47,000  Level Washington Center
Sat 01:18:52 PM 36.3811 -75.7544 205° Southwest 488 562 47,000  Level Washington Center
Sat 01:19:53 PM 36.2581 -75.8317 207° Southwest 488 562 47,000  Level Washington Center
Sat 01:20:53 PM 36.1389 -75.8956 203° Southwest 488 562 47,000  Level Washington Center
Sat 01:21:54 PM 36.0178 -75.9644 205° Southwest 488 562 47,000  Level Washington Center
Sat 01:22:51 PM 35.8964 -76.0356 205° Southwest 488 562 47,000  Level Washington Center
Sat 01:23:51 PM 35.7753 -76.1117 207° Southwest 488 562 47,000  Level Washington Center
Sat 01:24:53 PM 35.6517 -76.1800 204° Southwest 488 562 47,000  Level Washington Center
Sat 01:25:51 PM 35.5325 -76.2481 205° Southwest 488 562 47,000  Level Washington Center
Sat 01:26:52 PM 35.4089 -76.3158 204° Southwest 488 562 47,000  Level Washington Center
Sat 01:27:52 PM 35.2875 -76.3861 205° Southwest 488 562 47,000  Level Washington Center
Sat 01:28:51 PM 35.1639 -76.4533 204° Southwest 488 562 47,000  Level Washington Center
Sat 01:29:51 PM 35.0611 -76.5208 208° Southwest 483 556 47,000  Level Washington Center
Sat 01:30:51 PM 34.9356 -76.5903 204° Southwest 483 556 47,000  Level Washington Center
Sat 01:31:52 PM 34.8139 -76.6597 205° Southwest 483 556 47,000  Level Washington Center
Sat 01:32:52 PM 34.6900 -76.7261 204° Southwest 483 556 47,000  Level Washington Center
Sat 01:33:53 PM 34.5664 -76.7953 205° Southwest 488 562 47,000  Level Washington Center
Sat 01:34:53 PM 34.4425 -76.8664 205° Southwest 488 562 47,000  Level Washington Center
Sat 01:35:54 PM 34.3167 -76.9347 204° Southwest 488 562 47,000  Level Washington Center
Sat 01:36:51 PM 34.1969 -77.0031 205° Southwest 488 562 47,000  Level Washington Center
Sat 01:37:52 PM 34.0731 -77.0714 205° Southwest 488 562 47,000  Level Washington Center
Sat 01:38:53 PM 33.9492 -77.1392 204° Southwest 488 562 47,000  Level Washington Center
Sat 01:41:07 PM 33.6683 -77.2906 204° Southwest 479 551 47,000  Level Jacksonville Center
Sat 01:42:07 PM 33.5481 -77.3556 204° Southwest 479 551 47,000  Level Jacksonville Center
Sat 01:43:07 PM 33.4258 -77.4228 205° Southwest 479 551 47,000  Level Jacksonville Center
Sat 01:44:07 PM 33.3053 -77.4875 204° Southwest 479 551 47,000  Level Jacksonville Center
Sat 01:45:07 PM 33.1789 -77.5547 204° Southwest 485 558 47,000  Level Jacksonville Center
Sat 01:46:07 PM 33.0586 -77.6214 205° Southwest 485 558 47,000  Level Jacksonville Center
Sat 01:47:07 PM 32.9381 -77.6853 204° Southwest 485 558 47,000  Level Jacksonville Center
Sat 01:48:07 PM 32.8156 -77.7517 204° Southwest 485 558 47,000  Level Jacksonville Center
Sat 01:49:07 PM 32.6950 -77.8153 204° Southwest 485 558 47,000  Level Jacksonville Center
Sat 01:50:07 PM 32.5725 -77.8814 204° Southwest 485 558 47,000  Level Jacksonville Center
Sat 01:51:07 PM 32.4519 -77.9444 204° Southwest 485 558 47,000  Level Jacksonville Center
Sat 01:52:07 PM 32.3292 -78.0078 204° Southwest 475 547 47,000  Level Jacksonville Center
Sat 01:53:07 PM 32.2103 -78.0706 204° Southwest 475 547 47,000  Level Jacksonville Center
Sat 01:54:07 PM 32.0897 -78.1333 204° Southwest 475 547 47,000  Level Jacksonville Center
Sat 01:55:07 PM 31.9689 -78.2008 205° Southwest 475 547 47,000  Level Jacksonville Center
Sat 01:56:07 PM 31.8461 -78.2633 203° Southwest 475 547 47,000  Level Jacksonville Center
Sat 01:57:07 PM 31.7231 -78.3281 204° Southwest 480 552 47,000  Level Jacksonville Center
Sat 01:58:07 PM 31.6022 -78.3925 204° Southwest 480 552 47,000  Level Jacksonville Center
Sat 01:59:07 PM 31.4772 -78.4569 204° Southwest 486 559 47,000  Level Jacksonville Center
Sat 02:00:07 PM 31.3561 -78.5161 203° Southwest 486 559 47,000  Level Jacksonville Center
Sat 02:01:07 PM 31.2372 -78.5800 205° Southwest 479 551 47,000  Level Jacksonville Center
Sat 02:02:07 PM 31.1164 -78.6461 205° Southwest 479 551 47,000  Level Jacksonville Center
Sat 02:03:07 PM 30.9933 -78.7100 204° Southwest 458 527 47,000  Level Jacksonville Center
Sat 02:04:07 PM 30.8617 -78.7714 202° Southwest 482 555 47,000  Level Jacksonville Center
Sat 02:05:07 PM 30.7444 -78.8319 204° Southwest 467 537 47,000  Level Jacksonville Center
Sat 02:06:22 PM 30.5992 -78.9033 203° Southwest 475 547 47,000  Level Miami Center
Sat 02:07:22 PM 30.4772 -78.9683 205° Southwest 480 552 47,000  Level Miami Center
Sat 02:08:22 PM 30.3536 -79.0164 199° South 480 552 47,000  Level Miami Center
Sat 02:09:22 PM 30.2178 -79.0497 192° South 487 560 47,000  Level Miami Center
Sat 02:10:22 PM 30.0881 -79.0806 192° South 487 560 47,000  Level Miami Center
Sat 02:11:22 PM 29.9600 -79.1211 195° South 483 556 47,000  Level Miami Center
Sat 02:12:22 PM 29.8261 -79.1517 191° South 483 556 47,000  Level Miami Center
Sat 02:13:22 PM 29.6983 -79.1872 194° South 490 564 47,000  Level Miami Center
Sat 02:14:22 PM 29.5644 -79.2203 192° South 485 558 47,000  Level Miami Center
Sat 02:15:22 PM 29.4344 -79.2531 192° South 485 558 47,000  Level Miami Center
Sat 02:16:22 PM 29.3025 -79.2858 192° South 491 565 47,000  Level Miami Center
Sat 02:17:22 PM 29.1728 -79.3186 192° South 485 558 47,000  Level Miami Center
Sat 02:18:22 PM 29.0408 -79.3489 191° South 485 558 47,000 -900 Level Miami Center
Sat 02:19:22 PM 28.9108 -79.3839 193° South 485 558 45,200 -1,900 Descending Miami Center
Sat 02:20:22 PM 28.7850 -79.4142 192° South 485 558 43,200 -1,800 Descending Miami Center
Sat 02:21:22 PM 28.6675 -79.4447 193° South 480 552 41,600 -1,800 Descending Miami Center
Sat 02:22:22 PM 28.5378 -79.4772 192° South 475 547 39,600 -2,000 Descending Miami Center
Sat 02:23:22 PM 28.4078 -79.5072 191° South 475 547 37,600 -2,000 Descending Miami Center
Sat 02:24:22 PM 28.2778 -79.5394 192° South 475 547 35,600 -2,000 Descending Miami Center
Sat 02:25:22 PM 28.1456 -79.5717 192° South 481 554 33,600 -2,050 Descending Miami Center
Sat 02:26:22 PM 28.0175 -79.6086 194° South 481 554 31,500 -1,800 Descending Miami Center
Sat 02:27:22 PM 27.9258 -79.7119 225° Southwest 458 527 30,000 -700 Descending Miami Center
Sat 02:28:22 PM 27.8417 -79.8392 233° Southwest 446 513 30,100  Climbing Miami Center
Sat 02:29:22 PM 27.7686 -79.9406 231° Southwest 467 537 30,000 -800 Descending Miami Center
Sat 02:30:22 PM 27.6489 -79.9772 195° South 449 517 28,500 -1,450 Descending Miami Center
Sat 02:31:22 PM 27.5353 -79.9156 154° Southeast 402 463 27,100 -1,500 Descending Miami Center
Sat 02:32:22 PM 27.4181 -79.8397 150° Southeast 410 472 25,500 -1,450 Descending Miami Center
Sat 02:33:22 PM 27.3106 -79.7764 152° Southeast 431 496 24,200 -1,600 Descending Miami Center
Sat 02:34:22 PM 27.2069 -79.7433 164° South 435 501 22,300 -1,600 Descending Miami Center
Sat 02:35:22 PM 27.0822 -79.7075 166° South 417 480 21,000 -1,400 Descending Miami Center
Sat 02:36:22 PM 26.9744 -79.6678 162° South 411 473 19,500 -1,850 Descending Miami Center
Sat 02:37:22 PM 26.8731 -79.6256 160° South 404 465 17,300 -2,300 Descending Miami Center
Sat 02:38:22 PM 26.7714 -79.5861 161° South 391 450 14,900 -2,300 Descending Miami Center
Sat 02:39:22 PM 26.6819 -79.5678 170° South 372 428 12,700 -2,000 Descending Miami Center
Sat 02:40:22 PM 26.5756 -79.5606 177° South 365 420 10,900 -1,682 Descending Miami Center
Sat 02:41:34 PM 26.5086 -79.6706 236° Southwest 341 392 9,000 -1,700 Descending Miami Center
Sat 02:42:22 PM 26.4761 -79.7369 241° Southwest 309 356 7,500 -1,966 Descending Miami Center
Sat 02:43:30 PM 26.4075 -79.8258 229° Southwest 308 354 5,200 -800 Descending Miami Center
Sat 02:44:22 PM 26.3647 -79.8758 226° Southwest 306 352 5,900 429 Climbing Miami Center
Sat 02:45:22 PM 26.3133 -79.9253 221° Southwest 282 325 6,000 50 Climbing Miami Center
Sat 02:46:22 PM 26.2494 -79.9864 221° Southwest 282 325 6,000  Level Miami Center
Sat 02:47:22 PM 26.1939 -80.0428 222° Southwest 277 319 6,000  Level Miami Center
Sat 02:48:22 PM 26.1611 -80.1114 242° Southwest 272 313 6,000 -250 Level Miami Center
Sat 02:49:22 PM 26.1469 -80.1850 258° West 248 285 5,500 -560 Descending Miami Center
Sat 02:49:37 PM 26.1486 -80.2011 277° West 236 272 5,300 -1,400 Descending Miami Center
Sat 02:50:22 PM 26.1186 -80.2372 227° Southwest 213 245 4,100 -1,161 Descending Miami Center
Sat 02:50:39 PM 26.0914 -80.2411 187° South 228 262 4,100 -100 Level Miami Center
Sat 02:51:22 PM 26.0556 -80.2542 198° South 213 245 4,000 -100 Descending Miami Center
Sat 02:51:39 PM 26.0344 -80.2628 200° South 223 257 4,000 -692 Level Miami Center
Sat 02:52:40 PM 26.0058 -80.3242 243° Southwest 221 254 3,100 -984 Descending Miami Center
Sat 02:53:41 PM 25.9856 -80.3839 249° West 212 244 2,000 -738 Descending Miami Center
Sat 02:54:42 PM 25.9492 -80.4197 222° Southwest 165 190 1,600 -197 Descending Miami Center
Sat 02:55:43 PM 25.9186 -80.3911 140° Southeast 169 194 1,600 -295 Level Miami Center
Sat 02:56:44 PM 25.9072 -80.3422 105° East 143 165 1,000 -590 Descending Miami Center
Sat 02:57:45 PM 25.9103 -80.3053 85° East 116 133 400 -590 Descending Miami Center
Sat 02:59:00 PM 25.9074 -80.2782 114° Southeast  Level Estimated
Sat 03:06:00 PM 25.9074 -80.2782 114° Southeast  Level Estimated

Login

Don't have an account? Register now (free) for customized features, flight alerts, and more!